Clinton, MA

10:49 AM EST on January 30, 2015 (GMT -0500)
Horseshoe Lane | Change Station
CLOSE
Current Station
Personal Weather Station
Location: Clinton, MA
Elevation: 300 ft
Nearby Weather Stations

Elev 300 ft 42.43 °N, 71.66 °W | Updated 6 seconds ago

Overcast
Overcast
30.0 °F
Feels Like 30 °F
N
0.0
Wind Variable Wind from SSW
Gusts 0.0 mph

Today
High -- | Low -- °F
--% Chance of Precip.
Yesterday
High -- | Low -- °F
Precip. -- in
7:02 AM 4:57 PM
Waxing Gibbous, 83% visible
Pressure 29.78 in
Visibility 1.8 miles
Clouds Mostly Cloudy 4100 ft
Overcast 4900 ft
Windchill 30 °F
Dew Point 37 °F
Humidity 93%
Rainfall 0.00 in
Snow Depth Not available.
UV 0.0 out of 12
Pollen .10 out of 12
Air Quality Not available.
Flu Activity Not available.
SPECI KFIT 301544Z AUTO 00000KT 1 3/4SM -SN BR BKN041 OVC049 M02/M04 A2978 RMK AO2 P0000 T10171039

More Conditions Fewer Conditions

Pressure 29.78 in
Visibility 1.8 miles
Clouds Mostly Cloudy 4100 ft
Overcast 4900 ft
Windchill 30 °F
Dew Point 37 °F
Humidity 93%
Rainfall 0.00 in
Snow Depth Not available.
UV 0.0 out of 12
Pollen .10 out of 12
Air Quality Not available.
Flu Activity Not available.
SPECI KFIT 301544Z AUTO 00000KT 1 3/4SM -SN BR BKN041 OVC049 M02/M04 A2978 RMK AO2 P0000 T10171039

More Conditions Fewer Conditions

10-Day Weather Forecast

Almanac

Astronomy

Jan. 30, 2015 Rise Set
Actual Time
Civil Twilight
Nautical Twilight
Astronomical Twilight
Moon
Length of Visible Light
Length of Day
Tomorrow will be .
, % of the Moon is Illuminated

Today's Extremes

State Highs State Lows

Community

WunderPhotos

Upload Photos

1,791,791 photos uploaded!

WunderBlogs® & News

Nearby

Air Quality

  Air Quality AQ Index Pollutant
Not available.

Snow Depth

Station Depth Elevation

Earthquake Activity

City Distance Mag. Time & Date
Minimum magnitude displayed is 2.5.

Coastal Water Temperatures

Place Temperature

Nearby Weather Stations